sensor_id;sensor_type;location;lat;lon;timestamp;temperature;humidity
70734;DHT22;58320;48.804;9.252;2023-10-09T00:01:50;12.20;91.00
70734;DHT22;58320;48.804;9.252;2023-10-09T00:04:17;12.20;91.00
70734;DHT22;58320;48.804;9.252;2023-10-09T00:06:43;12.20;91.10
70734;DHT22;58320;48.804;9.252;2023-10-09T00:09:10;12.20;91.20
70734;DHT22;58320;48.804;9.252;2023-10-09T00:11:56;12.20;91.20
70734;DHT22;58320;48.804;9.252;2023-10-09T00:14:26;12.30;91.00
70734;DHT22;58320;48.804;9.252;2023-10-09T00:16:56;12.30;90.90
70734;DHT22;58320;48.804;9.252;2023-10-09T00:19:45;12.20;90.90
70734;DHT22;58320;48.804;9.252;2023-10-09T00:22:15;12.20;90.70
70734;DHT22;58320;48.804;9.252;2023-10-09T00:24:50;12.20;90.70
70734;DHT22;58320;48.804;9.252;2023-10-09T00:27:35;12.10;90.80
70734;DHT22;58320;48.804;9.252;2023-10-09T00:30:02;12.10;90.70
70734;DHT22;58320;48.804;9.252;2023-10-09T00:32:31;12.10;90.80
70734;DHT22;58320;48.804;9.252;2023-10-09T00:34:59;12.00;91.00
70734;DHT22;58320;48.804;9.252;2023-10-09T00:37:44;12.00;91.20
70734;DHT22;58320;48.804;9.252;2023-10-09T00:40:11;12.00;91.00
70734;DHT22;58320;48.804;9.252;2023-10-09T00:42:46;12.00;91.10
70734;DHT22;58320;48.804;9.252;2023-10-09T00:45:13;12.00;91.10
70734;DHT22;58320;48.804;9.252;2023-10-09T00:47:50;12.00;91.10
70734;DHT22;58320;48.804;9.252;2023-10-09T00:50:21;12.00;91.10
70734;DHT22;58320;48.804;9.252;2023-10-09T00:52:53;12.00;91.20
70734;DHT22;58320;48.804;9.252;2023-10-09T00:55:34;12.00;91.50
70734;DHT22;58320;48.804;9.252;2023-10-09T00:58:21;12.00;92.50
70734;DHT22;58320;48.804;9.252;2023-10-09T01:00:52;12.00;91.80
70734;DHT22;58320;48.804;9.252;2023-10-09T01:03:20;12.00;91.70
70734;DHT22;58320;48.804;9.252;2023-10-09T01:05:53;12.00;91.60
70734;DHT22;58320;48.804;9.252;2023-10-09T01:08:21;12.00;91.60
70734;DHT22;58320;48.804;9.252;2023-10-09T01:11:14;12.00;91.70
70734;DHT22;58320;48.804;9.252;2023-10-09T01:13:55;12.00;91.40
70734;DHT22;58320;48.804;9.252;2023-10-09T01:16:38;12.10;91.30
70734;DHT22;58320;48.804;9.252;2023-10-09T01:19:13;12.10;91.50
70734;DHT22;58320;48.804;9.252;2023-10-09T01:21:46;12.10;91.50
70734;DHT22;58320;48.804;9.252;2023-10-09T01:24:12;12.10;91.50
70734;DHT22;58320;48.804;9.252;2023-10-09T01:26:41;12.10;91.20
70734;DHT22;58320;48.804;9.252;2023-10-09T01:29:17;12.10;91.30
70734;DHT22;58320;48.804;9.252;2023-10-09T01:31:49;12.20;91.30
70734;DHT22;58320;48.804;9.252;2023-10-09T01:34:39;12.20;91.00
70734;DHT22;58320;48.804;9.252;2023-10-09T01:37:09;12.20;90.80
70734;DHT22;58320;48.804;9.252;2023-10-09T01:39:55;12.20;90.80
70734;DHT22;58320;48.804;9.252;2023-10-09T01:42:29;12.30;90.60
70734;DHT22;58320;48.804;9.252;2023-10-09T01:44:55;12.30;90.50
70734;DHT22;58320;48.804;9.252;2023-10-09T01:47:24;12.30;90.40
70734;DHT22;58320;48.804;9.252;2023-10-09T01:49:51;12.30;90.30
70734;DHT22;58320;48.804;9.252;2023-10-09T01:52:19;12.30;90.30
70734;DHT22;58320;48.804;9.252;2023-10-09T01:54:49;12.30;90.10
70734;DHT22;58320;48.804;9.252;2023-10-09T01:57:18;12.40;90.20
70734;DHT22;58320;48.804;9.252;2023-10-09T01:59:48;12.40;89.90
70734;DHT22;58320;48.804;9.252;2023-10-09T02:02:18;12.40;89.90
70734;DHT22;58320;48.804;9.252;2023-10-09T02:05:03;12.40;89.90
70734;DHT22;58320;48.804;9.252;2023-10-09T02:07:33;12.40;89.80
70734;DHT22;58320;48.804;9.252;2023-10-09T02:10:07;12.40;89.70
70734;DHT22;58320;48.804;9.252;2023-10-09T02:12:50;12.40;89.70
70734;DHT22;58320;48.804;9.252;2023-10-09T02:15:31;12.40;89.80
70734;DHT22;58320;48.804;9.252;2023-10-09T02:18:11;12.40;89.70
70734;DHT22;58320;48.804;9.252;2023-10-09T02:23:37;12.40;89.50
70734;DHT22;58320;48.804;9.252;2023-10-09T02:26:11;12.40;89.50
70734;DHT22;58320;48.804;9.252;2023-10-09T02:28:45;12.40;89.40
70734;DHT22;58320;48.804;9.252;2023-10-09T02:31:27;12.40;89.40
70734;DHT22;58320;48.804;9.252;2023-10-09T02:34:01;12.30;89.30
70734;DHT22;58320;48.804;9.252;2023-10-09T02:36:30;12.40;89.20
70734;DHT22;58320;48.804;9.252;2023-10-09T02:38:56;12.40;89.20
70734;DHT22;58320;48.804;9.252;2023-10-09T02:41:22;12.40;89.10
70734;DHT22;58320;48.804;9.252;2023-10-09T02:43:48;12.40;89.20
70734;DHT22;58320;48.804;9.252;2023-10-09T02:46:21;12.40;89.20
70734;DHT22;58320;48.804;9.252;2023-10-09T02:48:55;12.40;89.20
70734;DHT22;58320;48.804;9.252;2023-10-09T02:51:25;12.40;89.20
70734;DHT22;58320;48.804;9.252;2023-10-09T02:54:01;12.40;89.10
70734;DHT22;58320;48.804;9.252;2023-10-09T02:56:51;12.40;89.00
70734;DHT22;58320;48.804;9.252;2023-10-09T02:59:22;12.40;89.00
70734;DHT22;58320;48.804;9.252;2023-10-09T03:01:49;12.40;88.90
70734;DHT22;58320;48.804;9.252;2023-10-09T03:04:15;12.40;88.90
70734;DHT22;58320;48.804;9.252;2023-10-09T03:06:41;12.40;89.00
70734;DHT22;58320;48.804;9.252;2023-10-09T03:09:20;12.40;88.90
70734;DHT22;58320;48.804;9.252;2023-10-09T03:11:56;12.40;88.90
70734;DHT22;58320;48.804;9.252;2023-10-09T03:14:35;12.40;88.90
70734;DHT22;58320;48.804;9.252;2023-10-09T03:17:09;12.40;88.60
70734;DHT22;58320;48.804;9.252;2023-10-09T03:19:38;12.40;88.20
70734;DHT22;58320;48.804;9.252;2023-10-09T03:22:05;12.50;86.80
70734;DHT22;58320;48.804;9.252;2023-10-09T03:24:36;12.60;86.90
70734;DHT22;58320;48.804;9.252;2023-10-09T03:27:05;12.60;86.70
70734;DHT22;58320;48.804;9.252;2023-10-09T03:29:31;12.70;86.40
70734;DHT22;58320;48.804;9.252;2023-10-09T03:31:56;12.70;86.10
70734;DHT22;58320;48.804;9.252;2023-10-09T03:34:23;12.70;85.50
70734;DHT22;58320;48.804;9.252;2023-10-09T03:36:49;12.80;83.60
70734;DHT22;58320;48.804;9.252;2023-10-09T03:39:25;12.90;83.00
70734;DHT22;58320;48.804;9.252;2023-10-09T03:42:04;13.10;82.40
70734;DHT22;58320;48.804;9.252;2023-10-09T03:44:33;13.10;81.10
70734;DHT22;58320;48.804;9.252;2023-10-09T03:47:01;13.20;80.30
70734;DHT22;58320;48.804;9.252;2023-10-09T03:49:28;13.30;80.00
70734;DHT22;58320;48.804;9.252;2023-10-09T03:51:54;13.30;79.80
70734;DHT22;58320;48.804;9.252;2023-10-09T03:54:21;13.30;79.80
70734;DHT22;58320;48.804;9.252;2023-10-09T03:56:48;13.30;80.10
70734;DHT22;58320;48.804;9.252;2023-10-09T03:59:20;13.20;80.60
70734;DHT22;58320;48.804;9.252;2023-10-09T04:01:49;13.10;81.00
70734;DHT22;58320;48.804;9.252;2023-10-09T04:04:18;13.10;81.20
70734;DHT22;58320;48.804;9.252;2023-10-09T04:06:48;13.00;81.40
70734;DHT22;58320;48.804;9.252;2023-10-09T04:09:14;13.00;81.30
70734;DHT22;58320;48.804;9.252;2023-10-09T04:11:50;13.00;81.20
70734;DHT22;58320;48.804;9.252;2023-10-09T04:14:43;13.00;81.00
70734;DHT22;58320;48.804;9.252;2023-10-09T04:17:23;13.00;81.00
70734;DHT22;58320;48.804;9.252;2023-10-09T04:19:55;13.00;80.80
70734;DHT22;58320;48.804;9.252;2023-10-09T04:22:40;13.00;80.80
70734;DHT22;58320;48.804;9.252;2023-10-09T04:25:19;12.90;80.80
70734;DHT22;58320;48.804;9.252;2023-10-09T04:27:57;12.90;80.90
70734;DHT22;58320;48.804;9.252;2023-10-09T04:30:42;12.90;81.20
70734;DHT22;58320;48.804;9.252;2023-10-09T04:33:15;12.90;81.40
70734;DHT22;58320;48.804;9.252;2023-10-09T04:36:06;12.80;81.70
70734;DHT22;58320;48.804;9.252;2023-10-09T04:38:52;12.80;81.80
70734;DHT22;58320;48.804;9.252;2023-10-09T04:41:27;12.70;82.20
70734;DHT22;58320;48.804;9.252;2023-10-09T04:43:54;12.70;82.50
70734;DHT22;58320;48.804;9.252;2023-10-09T04:46:40;12.70;82.80
70734;DHT22;58320;48.804;9.252;2023-10-09T04:49:36;12.60;82.90
70734;DHT22;58320;48.804;9.252;2023-10-09T04:52:18;12.60;83.20
70734;DHT22;58320;48.804;9.252;2023-10-09T04:55:00;12.60;83.30
70734;DHT22;58320;48.804;9.252;2023-10-09T04:57:46;12.50;83.30
70734;DHT22;58320;48.804;9.252;2023-10-09T05:00:25;12.60;83.30
70734;DHT22;58320;48.804;9.252;2023-10-09T05:02:53;12.50;83.40
70734;DHT22;58320;48.804;9.252;2023-10-09T05:05:23;12.50;83.50
70734;DHT22;58320;48.804;9.252;2023-10-09T05:08:12;12.50;83.60
70734;DHT22;58320;48.804;9.252;2023-10-09T05:11:01;12.50;83.60
70734;DHT22;58320;48.804;9.252;2023-10-09T05:13:28;12.50;83.50
70734;DHT22;58320;48.804;9.252;2023-10-09T05:18:51;12.50;83.60
70734;DHT22;58320;48.804;9.252;2023-10-09T05:21:53;12.50;83.70
70734;DHT22;58320;48.804;9.252;2023-10-09T05:24:23;12.50;83.90
70734;DHT22;58320;48.804;9.252;2023-10-09T05:26:52;12.40;84.10
70734;DHT22;58320;48.804;9.252;2023-10-09T05:29:22;12.40;84.20
70734;DHT22;58320;48.804;9.252;2023-10-09T05:31:58;12.40;84.30
70734;DHT22;58320;48.804;9.252;2023-10-09T05:34:41;12.40;84.40
70734;DHT22;58320;48.804;9.252;2023-10-09T05:37:27;12.40;84.40
70734;DHT22;58320;48.804;9.252;2023-10-09T05:40:08;12.40;84.30
70734;DHT22;58320;48.804;9.252;2023-10-09T05:42:45;12.40;84.20
70734;DHT22;58320;48.804;9.252;2023-10-09T05:45:13;12.40;84.10
70734;DHT22;58320;48.804;9.252;2023-10-09T05:47:44;12.40;84.10
70734;DHT22;58320;48.804;9.252;2023-10-09T05:50:25;12.40;84.00
70734;DHT22;58320;48.804;9.252;2023-10-09T05:52:56;12.40;84.00
70734;DHT22;58320;48.804;9.252;2023-10-09T05:55:32;12.50;83.90
70734;DHT22;58320;48.804;9.252;2023-10-09T05:58:13;12.50;83.90
70734;DHT22;58320;48.804;9.252;2023-10-09T06:00:58;12.50;83.80
70734;DHT22;58320;48.804;9.252;2023-10-09T06:03:42;12.60;83.60
70734;DHT22;58320;48.804;9.252;2023-10-09T06:06:14;12.60;83.00
70734;DHT22;58320;48.804;9.252;2023-10-09T06:09:02;12.80;81.70
70734;DHT22;58320;48.804;9.252;2023-10-09T06:11:49;12.90;81.90
70734;DHT22;58320;48.804;9.252;2023-10-09T06:14:24;12.90;82.00
70734;DHT22;58320;48.804;9.252;2023-10-09T06:16:57;13.00;82.30
70734;DHT22;58320;48.804;9.252;2023-10-09T06:19:27;13.00;82.20
70734;DHT22;58320;48.804;9.252;2023-10-09T06:22:08;13.00;82.10
70734;DHT22;58320;48.804;9.252;2023-10-09T06:24:55;13.10;82.00
70734;DHT22;58320;48.804;9.252;2023-10-09T06:27:23;13.10;82.20
70734;DHT22;58320;48.804;9.252;2023-10-09T06:29:58;13.10;82.40
70734;DHT22;58320;48.804;9.252;2023-10-09T06:32:49;13.10;82.20
70734;DHT22;58320;48.804;9.252;2023-10-09T06:35:24;13.20;82.10
70734;DHT22;58320;48.804;9.252;2023-10-09T06:37:59;13.20;82.00
70734;DHT22;58320;48.804;9.252;2023-10-09T06:40:38;13.30;82.10
70734;DHT22;58320;48.804;9.252;2023-10-09T06:43:15;13.40;82.00
70734;DHT22;58320;48.804;9.252;2023-10-09T06:45:51;13.40;82.10
70734;DHT22;58320;48.804;9.252;2023-10-09T06:48:24;13.50;81.70
70734;DHT22;58320;48.804;9.252;2023-10-09T06:51:17;13.60;81.80
70734;DHT22;58320;48.804;9.252;2023-10-09T06:54:03;13.70;81.60
70734;DHT22;58320;48.804;9.252;2023-10-09T06:56:35;13.70;81.80
70734;DHT22;58320;48.804;9.252;2023-10-09T06:59:02;13.80;81.60
70734;DHT22;58320;48.804;9.252;2023-10-09T07:01:42;13.90;81.80
70734;DHT22;58320;48.804;9.252;2023-10-09T07:04:10;13.90;80.80
70734;DHT22;58320;48.804;9.252;2023-10-09T07:07:05;14.00;80.10
70734;DHT22;58320;48.804;9.252;2023-10-09T07:09:42;14.10;78.40
70734;DHT22;58320;48.804;9.252;2023-10-09T07:12:09;14.20;77.00
70734;DHT22;58320;48.804;9.252;2023-10-09T07:14:52;14.30;75.70
70734;DHT22;58320;48.804;9.252;2023-10-09T07:17:26;14.50;74.40
70734;DHT22;58320;48.804;9.252;2023-10-09T07:20:11;14.70;74.30
70734;DHT22;58320;48.804;9.252;2023-10-09T07:22:56;14.80;72.60
70734;DHT22;58320;48.804;9.252;2023-10-09T07:25:39;15.00;69.90
70734;DHT22;58320;48.804;9.252;2023-10-09T07:28:10;15.20;71.50
70734;DHT22;58320;48.804;9.252;2023-10-09T07:30:55;15.40;71.30
70734;DHT22;58320;48.804;9.252;2023-10-09T07:33:25;15.50;69.70
70734;DHT22;58320;48.804;9.252;2023-10-09T07:36:01;15.70;70.30
70734;DHT22;58320;48.804;9.252;2023-10-09T07:38:33;15.70;70.50
70734;DHT22;58320;48.804;9.252;2023-10-09T07:41:02;15.70;70.80
70734;DHT22;58320;48.804;9.252;2023-10-09T07:43:35;15.80;70.60
70734;DHT22;58320;48.804;9.252;2023-10-09T07:46:08;15.80;69.60
70734;DHT22;58320;48.804;9.252;2023-10-09T07:48:57;15.90;68.20
70734;DHT22;58320;48.804;9.252;2023-10-09T07:51:24;16.10;67.60
70734;DHT22;58320;48.804;9.252;2023-10-09T07:53:59;16.20;66.70
70734;DHT22;58320;48.804;9.252;2023-10-09T07:56:34;16.40;66.00
70734;DHT22;58320;48.804;9.252;2023-10-09T07:59:10;16.60;65.40
70734;DHT22;58320;48.804;9.252;2023-10-09T08:01:49;16.80;65.30
70734;DHT22;58320;48.804;9.252;2023-10-09T08:04:24;17.00;64.90
70734;DHT22;58320;48.804;9.252;2023-10-09T08:07:10;17.20;63.90
70734;DHT22;58320;48.804;9.252;2023-10-09T08:09:48;17.40;64.10
70734;DHT22;58320;48.804;9.252;2023-10-09T08:12:14;17.50;62.90
70734;DHT22;58320;48.804;9.252;2023-10-09T08:14:59;17.70;61.80
70734;DHT22;58320;48.804;9.252;2023-10-09T08:17:55;17.90;62.40
70734;DHT22;58320;48.804;9.252;2023-10-09T08:20:29;18.10;60.60
70734;DHT22;58320;48.804;9.252;2023-10-09T08:23:14;18.20;61.50
70734;DHT22;58320;48.804;9.252;2023-10-09T08:26:05;18.40;61.40
70734;DHT22;58320;48.804;9.252;2023-10-09T08:28:43;18.50;61.30
70734;DHT22;58320;48.804;9.252;2023-10-09T08:31:15;18.60;60.30
70734;DHT22;58320;48.804;9.252;2023-10-09T08:34:03;18.70;60.20
70734;DHT22;58320;48.804;9.252;2023-10-09T08:36:29;18.90;58.90
70734;DHT22;58320;48.804;9.252;2023-10-09T08:39:02;18.90;58.80
70734;DHT22;58320;48.804;9.252;2023-10-09T08:41:42;19.00;59.00
70734;DHT22;58320;48.804;9.252;2023-10-09T08:44:11;19.10;57.90
70734;DHT22;58320;48.804;9.252;2023-10-09T08:46:40;19.20;58.20
70734;DHT22;58320;48.804;9.252;2023-10-09T08:49:08;19.30;56.30
70734;DHT22;58320;48.804;9.252;2023-10-09T08:51:37;19.30;56.50
70734;DHT22;58320;48.804;9.252;2023-10-09T08:54:03;19.30;56.80
70734;DHT22;58320;48.804;9.252;2023-10-09T08:56:30;19.40;56.70
70734;DHT22;58320;48.804;9.252;2023-10-09T08:58:58;19.50;56.60
70734;DHT22;58320;48.804;9.252;2023-10-09T09:01:29;19.60;56.20
70734;DHT22;58320;48.804;9.252;2023-10-09T09:03:57;19.80;56.40
70734;DHT22;58320;48.804;9.252;2023-10-09T09:06:25;19.80;55.80
70734;DHT22;58320;48.804;9.252;2023-10-09T09:08:51;19.90;55.50
70734;DHT22;58320;48.804;9.252;2023-10-09T09:11:25;19.90;54.90
70734;DHT22;58320;48.804;9.252;2023-10-09T09:16:29;20.30;55.20
70734;DHT22;58320;48.804;9.252;2023-10-09T09:18:57;20.40;54.60
70734;DHT22;58320;48.804;9.252;2023-10-09T09:21:34;20.50;54.60
70734;DHT22;58320;48.804;9.252;2023-10-09T09:24:13;20.70;54.10
70734;DHT22;58320;48.804;9.252;2023-10-09T09:27:01;20.80;54.30
70734;DHT22;58320;48.804;9.252;2023-10-09T09:29:44;20.90;54.30
70734;DHT22;58320;48.804;9.252;2023-10-09T09:32:30;21.10;53.80
70734;DHT22;58320;48.804;9.252;2023-10-09T09:35:04;21.20;54.30
70734;DHT22;58320;48.804;9.252;2023-10-09T09:37:34;21.40;55.40
70734;DHT22;58320;48.804;9.252;2023-10-09T09:40:20;21.50;54.40
70734;DHT22;58320;48.804;9.252;2023-10-09T09:43:00;21.60;54.00
70734;DHT22;58320;48.804;9.252;2023-10-09T09:45:32;21.70;53.60
70734;DHT22;58320;48.804;9.252;2023-10-09T09:48:02;21.90;53.60
70734;DHT22;58320;48.804;9.252;2023-10-09T09:50:32;22.00;53.50
70734;DHT22;58320;48.804;9.252;2023-10-09T09:52:59;22.00;52.80
70734;DHT22;58320;48.804;9.252;2023-10-09T09:55:28;22.10;53.30
70734;DHT22;58320;48.804;9.252;2023-10-09T09:57:59;22.10;53.40
70734;DHT22;58320;48.804;9.252;2023-10-09T10:00:30;22.10;52.70
70734;DHT22;58320;48.804;9.252;2023-10-09T10:03:10;22.10;53.10
70734;DHT22;58320;48.804;9.252;2023-10-09T10:05:39;22.10;53.20
70734;DHT22;58320;48.804;9.252;2023-10-09T10:08:08;22.20;53.20
70734;DHT22;58320;48.804;9.252;2023-10-09T10:10:40;22.20;53.60
70734;DHT22;58320;48.804;9.252;2023-10-09T10:16:10;22.10;52.10
70734;DHT22;58320;48.804;9.252;2023-10-09T10:19:03;22.10;52.20
70734;DHT22;58320;48.804;9.252;2023-10-09T10:21:35;22.20;52.00
70734;DHT22;58320;48.804;9.252;2023-10-09T10:35:21;22.50;51.00
70734;DHT22;58320;48.804;9.252;2023-10-09T10:38:30;22.70;51.80
70734;DHT22;58320;48.804;9.252;2023-10-09T10:43:36;22.70;49.60
70734;DHT22;58320;48.804;9.252;2023-10-09T10:46:22;22.60;50.40
70734;DHT22;58320;48.804;9.252;2023-10-09T10:49:05;22.60;50.40
70734;DHT22;58320;48.804;9.252;2023-10-09T10:51:38;22.40;50.60
70734;DHT22;58320;48.804;9.252;2023-10-09T10:54:04;22.30;51.50
70734;DHT22;58320;48.804;9.252;2023-10-09T10:57:13;22.40;51.20
70734;DHT22;58320;48.804;9.252;2023-10-09T10:59:55;22.30;51.40
70734;DHT22;58320;48.804;9.252;2023-10-09T11:02:46;22.40;51.00
70734;DHT22;58320;48.804;9.252;2023-10-09T11:05:13;22.50;52.50
70734;DHT22;58320;48.804;9.252;2023-10-09T11:07:56;22.40;51.00
70734;DHT22;58320;48.804;9.252;2023-10-09T11:10:23;22.40;51.20
70734;DHT22;58320;48.804;9.252;2023-10-09T11:12:57;22.70;50.30
70734;DHT22;58320;48.804;9.252;2023-10-09T11:15:37;22.90;50.80
70734;DHT22;58320;48.804;9.252;2023-10-09T11:18:12;23.20;50.80
70734;DHT22;58320;48.804;9.252;2023-10-09T11:20:51;23.80;49.90
70734;DHT22;58320;48.804;9.252;2023-10-09T11:23:28;24.40;48.50
70734;DHT22;58320;48.804;9.252;2023-10-09T11:26:04;25.10;46.40
70734;DHT22;58320;48.804;9.252;2023-10-09T11:29:10;25.80;46.00
70734;DHT22;58320;48.804;9.252;2023-10-09T11:32:20;26.10;43.80
70734;DHT22;58320;48.804;9.252;2023-10-09T11:37:40;25.30;44.30
70734;DHT22;58320;48.804;9.252;2023-10-09T11:40:31;24.90;45.50
70734;DHT22;58320;48.804;9.252;2023-10-09T11:43:13;24.50;46.00
70734;DHT22;58320;48.804;9.252;2023-10-09T11:45:39;24.10;46.40
70734;DHT22;58320;48.804;9.252;2023-10-09T11:48:18;23.90;47.30
70734;DHT22;58320;48.804;9.252;2023-10-09T11:51:13;23.60;49.00
70734;DHT22;58320;48.804;9.252;2023-10-09T11:53:45;23.40;49.70
70734;DHT22;58320;48.804;9.252;2023-10-09T11:56:22;23.20;51.60
70734;DHT22;58320;48.804;9.252;2023-10-09T11:58:52;23.10;53.10
70734;DHT22;58320;48.804;9.252;2023-10-09T12:01:19;23.00;53.40
70734;DHT22;58320;48.804;9.252;2023-10-09T12:03:51;23.10;53.50
70734;DHT22;58320;48.804;9.252;2023-10-09T12:06:20;23.20;53.10
70734;DHT22;58320;48.804;9.252;2023-10-09T12:08:48;23.30;52.50
70734;DHT22;58320;48.804;9.252;2023-10-09T12:11:15;23.40;51.80
70734;DHT22;58320;48.804;9.252;2023-10-09T12:13:48;23.30;50.40
70734;DHT22;58320;48.804;9.252;2023-10-09T12:16:14;23.30;50.10
70734;DHT22;58320;48.804;9.252;2023-10-09T12:18:41;23.30;50.00
70734;DHT22;58320;48.804;9.252;2023-10-09T12:21:08;23.40;49.90
70734;DHT22;58320;48.804;9.252;2023-10-09T12:23:41;23.70;49.30
70734;DHT22;58320;48.804;9.252;2023-10-09T12:26:09;24.00;48.70
70734;DHT22;58320;48.804;9.252;2023-10-09T12:28:43;24.40;48.50
70734;DHT22;58320;48.804;9.252;2023-10-09T12:31:15;24.90;47.60
70734;DHT22;58320;48.804;9.252;2023-10-09T12:33:45;25.30;46.70
70734;DHT22;58320;48.804;9.252;2023-10-09T12:36:16;25.80;45.30
70734;DHT22;58320;48.804;9.252;2023-10-09T12:38:46;25.90;45.30
70734;DHT22;58320;48.804;9.252;2023-10-09T12:41:16;26.00;45.40
70734;DHT22;58320;48.804;9.252;2023-10-09T12:43:56;26.20;44.80
70734;DHT22;58320;48.804;9.252;2023-10-09T12:46:25;26.30;44.40
70734;DHT22;58320;48.804;9.252;2023-10-09T12:48:52;26.50;43.80
70734;DHT22;58320;48.804;9.252;2023-10-09T12:51:20;26.50;42.60
70734;DHT22;58320;48.804;9.252;2023-10-09T12:53:51;26.50;42.10
70734;DHT22;58320;48.804;9.252;2023-10-09T12:56:26;26.30;39.80
70734;DHT22;58320;48.804;9.252;2023-10-09T12:59:02;26.00;39.70
70734;DHT22;58320;48.804;9.252;2023-10-09T13:01:30;25.80;39.20
70734;DHT22;58320;48.804;9.252;2023-10-09T13:04:09;25.50;39.00
70734;DHT22;58320;48.804;9.252;2023-10-09T13:06:38;25.30;39.50
70734;DHT22;58320;48.804;9.252;2023-10-09T13:09:13;25.20;39.60
70734;DHT22;58320;48.804;9.252;2023-10-09T13:11:43;25.10;40.30
70734;DHT22;58320;48.804;9.252;2023-10-09T13:14:09;25.10;41.00
70734;DHT22;58320;48.804;9.252;2023-10-09T13:16:48;25.20;41.30
70734;DHT22;58320;48.804;9.252;2023-10-09T13:19:16;25.30;40.70
70734;DHT22;58320;48.804;9.252;2023-10-09T13:21:43;25.50;39.70
70734;DHT22;58320;48.804;9.252;2023-10-09T13:24:09;25.90;39.10
70734;DHT22;58320;48.804;9.252;2023-10-09T13:26:39;26.40;39.30
70734;DHT22;58320;48.804;9.252;2023-10-09T13:29:06;26.50;37.10
70734;DHT22;58320;48.804;9.252;2023-10-09T13:31:35;26.50;37.30
70734;DHT22;58320;48.804;9.252;2023-10-09T13:34:04;26.80;36.90
70734;DHT22;58320;48.804;9.252;2023-10-09T13:36:32;26.90;35.60
70734;DHT22;58320;48.804;9.252;2023-10-09T13:39:07;27.20;36.60
70734;DHT22;58320;48.804;9.252;2023-10-09T13:41:58;27.60;36.80
70734;DHT22;58320;48.804;9.252;2023-10-09T13:44:32;27.90;34.80
70734;DHT22;58320;48.804;9.252;2023-10-09T13:47:05;28.10;34.20
70734;DHT22;58320;48.804;9.252;2023-10-09T13:49:32;28.30;34.40
70734;DHT22;58320;48.804;9.252;2023-10-09T13:51:59;28.60;32.30
70734;DHT22;58320;48.804;9.252;2023-10-09T13:54:29;28.90;31.00
70734;DHT22;58320;48.804;9.252;2023-10-09T13:56:55;29.00;29.60
70734;DHT22;58320;48.804;9.252;2023-10-09T13:59:22;29.40;28.80
70734;DHT22;58320;48.804;9.252;2023-10-09T14:01:53;29.60;26.50
70734;DHT22;58320;48.804;9.252;2023-10-09T14:04:25;29.50;24.90
70734;DHT22;58320;48.804;9.252;2023-10-09T14:06:54;29.30;25.10
70734;DHT22;58320;48.804;9.252;2023-10-09T14:09:24;29.40;25.30
70734;DHT22;58320;48.804;9.252;2023-10-09T14:12:00;29.50;24.90
70734;DHT22;58320;48.804;9.252;2023-10-09T14:17:09;28.90;24.60
70734;DHT22;58320;48.804;9.252;2023-10-09T14:19:41;28.60;25.20
70734;DHT22;58320;48.804;9.252;2023-10-09T14:22:17;28.30;25.10
70734;DHT22;58320;48.804;9.252;2023-10-09T14:24:47;27.80;25.10
70734;DHT22;58320;48.804;9.252;2023-10-09T14:27:16;27.40;25.30
70734;DHT22;58320;48.804;9.252;2023-10-09T14:29:49;27.00;25.40
70734;DHT22;58320;48.804;9.252;2023-10-09T14:32:16;26.80;26.20
70734;DHT22;58320;48.804;9.252;2023-10-09T14:34:44;26.60;26.30
70734;DHT22;58320;48.804;9.252;2023-10-09T14:37:20;26.40;26.70
70734;DHT22;58320;48.804;9.252;2023-10-09T14:39:47;26.30;27.20
70734;DHT22;58320;48.804;9.252;2023-10-09T14:42:16;26.20;27.00
70734;DHT22;58320;48.804;9.252;2023-10-09T14:44:43;26.20;27.30
70734;DHT22;58320;48.804;9.252;2023-10-09T14:47:10;26.00;27.30
70734;DHT22;58320;48.804;9.252;2023-10-09T14:49:37;26.00;27.80
70734;DHT22;58320;48.804;9.252;2023-10-09T14:52:09;25.90;28.20
70734;DHT22;58320;48.804;9.252;2023-10-09T14:54:38;25.70;28.50
70734;DHT22;58320;48.804;9.252;2023-10-09T14:57:04;25.50;28.60
70734;DHT22;58320;48.804;9.252;2023-10-09T14:59:34;25.30;28.70
70734;DHT22;58320;48.804;9.252;2023-10-09T15:02:00;25.10;28.70
70734;DHT22;58320;48.804;9.252;2023-10-09T15:04:26;25.00;28.70
70734;DHT22;58320;48.804;9.252;2023-10-09T15:06:52;24.90;29.10
70734;DHT22;58320;48.804;9.252;2023-10-09T15:09:18;24.90;29.30
70734;DHT22;58320;48.804;9.252;2023-10-09T15:11:55;24.90;29.50
70734;DHT22;58320;48.804;9.252;2023-10-09T15:14:21;24.90;29.60
70734;DHT22;58320;48.804;9.252;2023-10-09T15:16:47;24.80;30.00
70734;DHT22;58320;48.804;9.252;2023-10-09T15:19:14;24.80;29.90
70734;DHT22;58320;48.804;9.252;2023-10-09T15:21:42;24.70;30.20
70734;DHT22;58320;48.804;9.252;2023-10-09T15:24:14;24.70;30.40
70734;DHT22;58320;48.804;9.252;2023-10-09T15:26:42;24.60;30.70
70734;DHT22;58320;48.804;9.252;2023-10-09T15:29:08;24.50;31.00
70734;DHT22;58320;48.804;9.252;2023-10-09T15:31:35;24.40;31.60
70734;DHT22;58320;48.804;9.252;2023-10-09T15:34:02;24.30;31.60
70734;DHT22;58320;48.804;9.252;2023-10-09T15:36:28;24.20;31.80
70734;DHT22;58320;48.804;9.252;2023-10-09T15:38:58;24.10;32.60
70734;DHT22;58320;48.804;9.252;2023-10-09T15:41:28;24.00;33.50
70734;DHT22;58320;48.804;9.252;2023-10-09T15:43:58;23.90;34.70
70734;DHT22;58320;48.804;9.252;2023-10-09T15:46:24;23.70;35.30
70734;DHT22;58320;48.804;9.252;2023-10-09T15:48:51;23.60;35.80
70734;DHT22;58320;48.804;9.252;2023-10-09T15:51:19;23.40;36.50
70734;DHT22;58320;48.804;9.252;2023-10-09T15:53:45;23.30;37.30
70734;DHT22;58320;48.804;9.252;2023-10-09T15:56:12;23.20;38.00
70734;DHT22;58320;48.804;9.252;2023-10-09T15:58:42;23.00;38.40
70734;DHT22;58320;48.804;9.252;2023-10-09T16:01:13;22.80;38.70
70734;DHT22;58320;48.804;9.252;2023-10-09T16:03:43;22.60;38.70
70734;DHT22;58320;48.804;9.252;2023-10-09T16:06:10;22.50;38.80
70734;DHT22;58320;48.804;9.252;2023-10-09T16:08:48;22.40;38.30
70734;DHT22;58320;48.804;9.252;2023-10-09T16:11:22;22.30;37.90
70734;DHT22;58320;48.804;9.252;2023-10-09T16:13:53;22.20;37.60
70734;DHT22;58320;48.804;9.252;2023-10-09T16:16:29;22.20;37.50
70734;DHT22;58320;48.804;9.252;2023-10-09T16:18:56;22.10;38.30
70734;DHT22;58320;48.804;9.252;2023-10-09T16:21:26;22.00;39.20
70734;DHT22;58320;48.804;9.252;2023-10-09T16:23:52;21.70;41.00
70734;DHT22;58320;48.804;9.252;2023-10-09T16:26:19;21.50;40.80
70734;DHT22;58320;48.804;9.252;2023-10-09T16:28:50;21.30;41.40
70734;DHT22;58320;48.804;9.252;2023-10-09T16:31:17;21.10;41.90
70734;DHT22;58320;48.804;9.252;2023-10-09T16:33:48;20.90;42.10
70734;DHT22;58320;48.804;9.252;2023-10-09T16:36:14;20.70;42.40
70734;DHT22;58320;48.804;9.252;2023-10-09T16:38:41;20.60;42.50
70734;DHT22;58320;48.804;9.252;2023-10-09T16:41:09;20.40;42.60
70734;DHT22;58320;48.804;9.252;2023-10-09T16:43:35;20.30;42.90